createdAt,value
2023-05-06T00:00:22.394Z,56.70
2023-05-06T00:02:49.211Z,57.40
2023-05-06T00:05:18.526Z,57.20
2023-05-06T00:07:46.363Z,57.20
2023-05-06T00:10:13.390Z,57.20
2023-05-06T00:12:40.288Z,57.60
2023-05-06T00:15:07.953Z,57.60
2023-05-06T00:17:34.912Z,57.70
2023-05-06T00:20:01.801Z,58.00
2023-05-06T00:22:28.634Z,58.20
2023-05-06T00:24:55.486Z,57.90
2023-05-06T00:27:22.289Z,57.90
2023-05-06T00:29:49.054Z,58.30
2023-05-06T00:32:15.830Z,58.30
2023-05-06T00:34:43.018Z,58.70
2023-05-06T00:37:09.771Z,59.30
2023-05-06T00:39:36.670Z,59.30
2023-05-06T00:42:03.720Z,59.40
2023-05-06T00:44:31.888Z,59.60
2023-05-06T00:47:00.801Z,59.60
2023-05-06T00:49:29.326Z,59.50
2023-05-06T00:51:57.397Z,59.90
2023-05-06T00:54:27.765Z,59.20
2023-05-06T00:56:55.277Z,59.20
2023-05-06T00:59:23.065Z,59.40
2023-05-06T01:01:49.984Z,59.60
2023-05-06T01:04:16.892Z,59.80
2023-05-06T01:06:54.259Z,59.60
2023-05-06T01:09:49.377Z,59.00
2023-05-06T01:12:29.446Z,59.20
2023-05-06T01:15:11.816Z,59.40
2023-05-06T01:17:44.860Z,59.60
2023-05-06T01:20:12.908Z,60.20
2023-05-06T01:22:40.004Z,60.10
2023-05-06T01:25:07.219Z,60.30
2023-05-06T01:27:34.104Z,60.40
2023-05-06T01:30:01.350Z,60.30
2023-05-06T01:32:47.388Z,60.70
2023-05-06T01:35:36.618Z,60.20
2023-05-06T01:38:34.804Z,60.20
2023-05-06T01:41:02.810Z,60.50
2023-05-06T01:43:41.656Z,60.70
2023-05-06T01:46:15.884Z,60.80
2023-05-06T01:48:45.645Z,60.70
2023-05-06T01:51:12.599Z,60.80
2023-05-06T01:53:39.377Z,60.80
2023-05-06T01:56:07.675Z,60.80
2023-05-06T01:58:34.386Z,61.30
2023-05-06T02:01:01.293Z,60.80
2023-05-06T02:03:28.273Z,61.20
2023-05-06T02:05:55.590Z,61.40
2023-05-06T02:08:22.615Z,61.00
2023-05-06T02:10:49.428Z,61.50
2023-05-06T02:13:18.801Z,61.10
2023-05-06T02:15:46.360Z,61.30
2023-05-06T02:18:13.163Z,61.50
2023-05-06T02:20:39.902Z,61.50
2023-05-06T02:23:06.656Z,61.90
2023-05-06T02:25:33.679Z,61.90
2023-05-06T02:28:00.448Z,61.70
2023-05-06T02:30:27.313Z,61.90
2023-05-06T02:32:54.085Z,61.90
2023-05-06T02:35:20.913Z,61.80
2023-05-06T02:37:47.719Z,61.90
2023-05-06T02:40:14.640Z,62.00
2023-05-06T02:42:41.542Z,62.00
2023-05-06T02:45:09.077Z,62.40
2023-05-06T02:47:36.425Z,62.20
2023-05-06T02:50:03.742Z,62.50
2023-05-06T02:52:30.674Z,62.70
2023-05-06T02:54:57.388Z,62.90
2023-05-06T02:57:24.375Z,63.00
2023-05-06T02:59:51.175Z,62.80
2023-05-06T03:02:17.966Z,63.10
2023-05-06T03:04:44.780Z,63.40
2023-05-06T03:07:12.629Z,63.70
2023-05-06T03:09:39.490Z,63.80
2023-05-06T03:12:06.437Z,63.90
2023-05-06T03:14:33.160Z,63.40
2023-05-06T03:17:00.034Z,63.50
2023-05-06T03:19:26.789Z,63.70
2023-05-06T03:21:53.553Z,63.40
2023-05-06T03:24:20.729Z,63.10
2023-05-06T03:26:47.517Z,63.10
2023-05-06T03:29:14.228Z,63.40
2023-05-06T03:31:41.078Z,63.30
2023-05-06T03:34:07.883Z,63.30
2023-05-06T03:36:34.713Z,63.00
2023-05-06T03:39:01.766Z,63.30
2023-05-06T03:41:28.596Z,63.00
2023-05-06T03:43:55.831Z,63.30
2023-05-06T03:46:22.672Z,63.10
2023-05-06T03:48:49.456Z,63.60
2023-05-06T03:51:16.450Z,63.20
2023-05-06T03:53:43.304Z,63.30
2023-05-06T03:56:10.082Z,63.30
2023-05-06T03:58:36.797Z,63.20
2023-05-06T04:01:04.411Z,63.30
2023-05-06T04:03:31.252Z,63.40
2023-05-06T04:05:58.102Z,63.40
2023-05-06T04:08:24.887Z,63.90
2023-05-06T04:10:51.970Z,64.00
2023-05-06T04:13:19.654Z,64.70
2023-05-06T04:15:46.663Z,65.60
2023-05-06T04:18:18.941Z,66.50
2023-05-06T04:20:48.749Z,66.90
2023-05-06T04:23:16.215Z,67.10
2023-05-06T04:25:48.674Z,67.80
2023-05-06T04:28:16.964Z,68.10
2023-05-06T04:30:44.620Z,68.20
2023-05-06T04:33:12.041Z,68.10
2023-05-06T04:35:39.578Z,68.40
2023-05-06T04:38:06.386Z,68.40
2023-05-06T04:40:35.266Z,68.10
2023-05-06T04:43:03.027Z,68.00
2023-05-06T04:45:29.947Z,68.20
2023-05-06T04:47:56.899Z,68.00
2023-05-06T04:50:23.643Z,68.00
2023-05-06T04:52:50.510Z,67.70
2023-05-06T04:55:17.403Z,67.60
2023-05-06T04:57:44.168Z,68.10
2023-05-06T05:00:11.488Z,68.20
2023-05-06T05:02:38.473Z,68.10
2023-05-06T05:05:05.714Z,68.50
2023-05-06T05:07:32.465Z,68.40
2023-05-06T05:09:59.296Z,68.60
2023-05-06T05:12:26.054Z,68.10
2023-05-06T05:14:52.805Z,67.80
2023-05-06T05:17:19.679Z,68.10
2023-05-06T05:19:46.557Z,67.60
2023-05-06T05:22:13.423Z,67.40
2023-05-06T05:24:40.323Z,66.90
2023-05-06T05:27:07.576Z,67.10
2023-05-06T05:29:34.418Z,66.70
2023-05-06T05:32:01.170Z,66.60
2023-05-06T05:34:27.902Z,66.60
2023-05-06T05:36:54.658Z,66.60
2023-05-06T05:39:21.413Z,66.60
2023-05-06T05:41:48.217Z,66.60
2023-05-06T05:44:15.397Z,66.40
2023-05-06T05:46:42.747Z,66.50
2023-05-06T05:49:09.631Z,66.50
2023-05-06T05:51:36.407Z,66.50
2023-05-06T05:54:03.315Z,66.50
2023-05-06T05:56:30.025Z,66.40
2023-05-06T05:58:56.802Z,66.30
2023-05-06T06:01:23.674Z,66.40
2023-05-06T06:03:50.621Z,66.70
2023-05-06T06:06:17.592Z,66.40
2023-05-06T06:08:44.397Z,66.70
2023-05-06T06:11:12.057Z,66.70
2023-05-06T06:13:39.054Z,66.50
2023-05-06T06:16:06.277Z,66.90
2023-05-06T06:18:33.077Z,66.60
2023-05-06T06:21:00.036Z,66.40
2023-05-06T06:23:26.855Z,66.80
2023-05-06T06:25:53.660Z,67.20
2023-05-06T06:28:20.638Z,66.90
2023-05-06T06:30:47.402Z,67.20
2023-05-06T06:33:14.205Z,67.10
2023-05-06T06:35:40.999Z,67.00
2023-05-06T06:38:07.799Z,65.40
2023-05-06T06:40:34.550Z,65.20
2023-05-06T06:43:01.391Z,65.10
2023-05-06T06:45:28.404Z,65.00
2023-05-06T06:47:55.338Z,65.30
2023-05-06T06:50:22.375Z,65.50
2023-05-06T06:52:49.111Z,65.50
2023-05-06T06:55:15.951Z,65.10
2023-05-06T06:57:42.765Z,64.90
2023-05-06T07:00:10.360Z,64.60
2023-05-06T07:02:37.226Z,65.00
2023-05-06T07:05:04.747Z,64.80
2023-05-06T07:07:31.534Z,64.50
2023-05-06T07:09:58.388Z,64.20
2023-05-06T07:12:26.784Z,64.40
2023-05-06T07:14:53.728Z,64.10
2023-05-06T07:17:20.642Z,64.20
2023-05-06T07:19:47.408Z,63.70
2023-05-06T07:22:14.204Z,63.90
2023-05-06T07:24:41.390Z,63.20
2023-05-06T07:27:08.221Z,63.10
2023-05-06T07:29:36.641Z,62.70
2023-05-06T07:32:03.923Z,62.20
2023-05-06T07:34:30.824Z,61.60
2023-05-06T07:36:57.550Z,61.50
2023-05-06T07:39:24.372Z,61.20
2023-05-06T07:41:51.659Z,60.70
2023-05-06T07:44:18.543Z,58.70
2023-05-06T07:46:45.574Z,58.70
2023-05-06T07:49:12.349Z,57.80
2023-05-06T07:51:39.408Z,57.70
2023-05-06T07:54:06.364Z,57.00
2023-05-06T07:56:33.227Z,56.40
2023-05-06T07:59:00.130Z,55.00
2023-05-06T08:01:29.056Z,54.40
2023-05-06T08:03:56.060Z,53.70
2023-05-06T08:06:22.927Z,53.10
2023-05-06T08:08:49.697Z,52.90
2023-05-06T08:11:18.120Z,52.70
2023-05-06T08:13:47.221Z,52.50
2023-05-06T08:16:14.205Z,52.30
2023-05-06T08:18:41.021Z,51.80
2023-05-06T08:21:07.820Z,52.30
2023-05-06T08:23:34.542Z,52.00
2023-05-06T08:26:01.931Z,51.80
2023-05-06T08:28:29.420Z,52.50
2023-05-06T08:30:56.306Z,52.60
2023-05-06T08:33:23.108Z,51.90
2023-05-06T08:35:50.941Z,51.90
2023-05-06T08:38:17.808Z,52.00
2023-05-06T08:40:45.236Z,52.20
2023-05-06T08:43:17.797Z,52.30
2023-05-06T08:45:44.594Z,52.00
2023-05-06T08:48:11.619Z,52.10
2023-05-06T08:50:43.291Z,51.80
2023-05-06T08:53:14.045Z,51.60
2023-05-06T08:55:42.268Z,51.40
2023-05-06T09:01:04.999Z,51.80
2023-05-06T09:03:32.167Z,51.20
2023-05-06T09:05:59.056Z,50.40
2023-05-06T09:08:25.987Z,50.10
2023-05-06T09:13:43.668Z,49.80
2023-05-06T09:16:10.494Z,50.80
2023-05-06T09:18:37.509Z,50.70
2023-05-06T09:21:04.789Z,50.40
2023-05-06T09:23:32.038Z,50.70
2023-05-06T09:25:58.893Z,50.80
2023-05-06T09:28:33.004Z,50.30
2023-05-06T09:31:00.691Z,49.70
2023-05-06T09:33:27.732Z,49.90
2023-05-06T09:35:54.533Z,49.00
2023-05-06T09:38:21.878Z,49.60
2023-05-06T09:40:48.681Z,49.00
2023-05-06T09:43:15.721Z,50.00
2023-05-06T09:45:43.246Z,49.70
2023-05-06T09:48:10.311Z,49.60
2023-05-06T09:50:37.147Z,49.30
2023-05-06T09:53:05.675Z,49.10
2023-05-06T09:55:33.718Z,48.70
2023-05-06T09:58:01.477Z,47.40
2023-05-06T10:00:30.388Z,46.70
2023-05-06T10:02:58.830Z,47.30
2023-05-06T10:05:27.366Z,46.50
2023-05-06T10:07:57.242Z,46.20
2023-05-06T10:10:26.395Z,45.40
2023-05-06T10:12:53.693Z,45.60
2023-05-06T10:15:20.636Z,45.10
2023-05-06T10:17:49.002Z,45.20
2023-05-06T10:20:17.506Z,45.40
2023-05-06T10:23:06.233Z,45.80
2023-05-06T10:25:40.726Z,46.20
2023-05-06T10:28:11.542Z,45.60
2023-05-06T10:30:48.592Z,45.30
2023-05-06T10:33:17.150Z,44.50
2023-05-06T10:36:06.011Z,44.80
2023-05-06T10:38:34.609Z,45.00
2023-05-06T10:41:02.228Z,44.90
2023-05-06T10:43:34.154Z,44.50
2023-05-06T10:46:08.135Z,44.50
2023-05-06T10:48:40.240Z,44.50
2023-05-06T10:51:22.359Z,44.60
2023-05-06T10:53:58.622Z,45.40
2023-05-06T10:56:35.376Z,44.10
2023-05-06T10:59:10.744Z,43.70
2023-05-06T11:01:43.054Z,43.50
2023-05-06T11:04:15.603Z,43.30
2023-05-06T11:06:46.648Z,43.10
2023-05-06T11:09:27.132Z,43.20
2023-05-06T11:12:01.865Z,43.50
2023-05-06T11:14:32.549Z,43.30
2023-05-06T11:17:01.540Z,42.30
2023-05-06T11:19:33.252Z,42.50
2023-05-06T11:22:02.551Z,40.80
2023-05-06T11:24:39.742Z,38.90
2023-05-06T11:27:07.143Z,37.50
2023-05-06T11:29:35.536Z,35.50
2023-05-06T11:32:03.829Z,35.30
2023-05-06T11:34:32.247Z,34.90
2023-05-06T11:37:02.550Z,34.30
2023-05-06T11:39:36.553Z,31.70
2023-05-06T11:42:07.900Z,32.20
2023-05-06T11:44:36.927Z,32.70
2023-05-06T11:47:08.914Z,33.20
2023-05-06T11:49:43.552Z,33.70
2023-05-06T11:52:11.843Z,33.70
2023-05-06T11:54:40.978Z,33.30
2023-05-06T11:57:08.399Z,31.50
2023-05-06T11:59:40.034Z,31.80
2023-05-06T12:02:13.017Z,31.90
2023-05-06T12:04:43.918Z,32.70
2023-05-06T12:07:12.831Z,32.80
2023-05-06T12:09:46.658Z,32.10
2023-05-06T12:12:17.516Z,29.80
2023-05-06T12:14:46.012Z,29.30
2023-05-06T12:17:13.696Z,30.60
2023-05-06T12:19:40.599Z,30.90
2023-05-06T12:22:22.492Z,31.00
2023-05-06T12:24:49.534Z,31.00
2023-05-06T12:27:36.703Z,30.10
2023-05-06T12:30:04.781Z,29.50
2023-05-06T12:32:31.941Z,27.60
2023-05-06T12:35:00.465Z,28.10
2023-05-06T12:37:30.352Z,26.90
2023-05-06T12:39:59.197Z,27.10
2023-05-06T12:42:27.282Z,27.30
2023-05-06T12:44:54.112Z,28.00
2023-05-06T12:47:23.909Z,26.20
2023-05-06T12:49:54.475Z,25.90
2023-05-06T12:52:23.267Z,26.20
2023-05-06T12:54:52.725Z,27.30
2023-05-06T12:57:22.976Z,27.10
2023-05-06T12:59:50.061Z,27.90
2023-05-06T13:02:16.959Z,28.20
2023-05-06T13:04:45.316Z,28.00
2023-05-06T13:07:12.128Z,27.00
2023-05-06T13:09:38.875Z,27.30
2023-05-06T13:12:06.321Z,28.00
2023-05-06T13:14:33.023Z,29.00
2023-05-06T13:17:01.349Z,28.40
2023-05-06T13:19:33.067Z,28.10
2023-05-06T13:22:01.077Z,28.70
2023-05-06T13:24:28.511Z,28.20
2023-05-06T13:26:57.124Z,27.90
2023-05-06T13:29:24.559Z,28.20
2023-05-06T13:31:51.756Z,28.40
2023-05-06T13:34:18.875Z,28.50
2023-05-06T13:36:46.862Z,28.30
2023-05-06T13:39:13.930Z,28.10
2023-05-06T13:41:40.904Z,28.40
2023-05-06T13:44:07.979Z,28.40
2023-05-06T13:46:34.819Z,28.50
2023-05-06T13:49:01.739Z,27.70
2023-05-06T13:51:30.776Z,27.80
2023-05-06T13:53:57.890Z,27.70
2023-05-06T13:56:24.707Z,26.90
2023-05-06T13:58:53.273Z,26.80
2023-05-06T14:01:24.240Z,27.40
2023-05-06T14:03:51.297Z,26.50
2023-05-06T14:06:18.566Z,27.10
2023-05-06T14:08:46.181Z,27.30
2023-05-06T14:11:13.094Z,26.80
2023-05-06T14:13:40.501Z,26.60
2023-05-06T14:16:07.477Z,27.20
2023-05-06T14:18:34.564Z,26.30
2023-05-06T14:21:01.317Z,26.30
2023-05-06T14:23:28.204Z,26.20
2023-05-06T14:25:54.976Z,26.00
2023-05-06T14:28:21.787Z,26.20
2023-05-06T14:30:50.260Z,26.60
2023-05-06T14:33:17.275Z,27.30
2023-05-06T14:35:46.039Z,27.40
2023-05-06T14:38:15.482Z,27.60
2023-05-06T14:40:42.280Z,28.00
2023-05-06T14:43:09.139Z,27.80
2023-05-06T14:45:35.983Z,28.70
2023-05-06T14:48:03.013Z,28.70
2023-05-06T14:50:31.246Z,28.10
2023-05-06T14:52:58.145Z,28.00
2023-05-06T14:55:25.606Z,28.70
2023-05-06T14:57:52.431Z,28.70
2023-05-06T15:00:20.402Z,29.10
2023-05-06T15:02:47.496Z,28.10
2023-05-06T15:05:14.602Z,27.30
2023-05-06T15:07:43.097Z,27.50
2023-05-06T15:10:10.225Z,27.20
2023-05-06T15:12:37.506Z,26.80
2023-05-06T15:15:05.666Z,26.00
2023-05-06T15:17:32.752Z,25.90
2023-05-06T15:19:59.656Z,26.10
2023-05-06T15:22:26.534Z,25.60
2023-05-06T15:24:53.470Z,25.00
2023-05-06T15:27:20.329Z,25.20
2023-05-06T15:29:47.175Z,25.10
2023-05-06T15:32:14.029Z,24.90
2023-05-06T15:34:40.819Z,24.30
2023-05-06T15:37:08.105Z,24.60
2023-05-06T15:39:38.019Z,24.80
2023-05-06T15:42:05.244Z,25.00
2023-05-06T15:44:33.668Z,25.20
2023-05-06T15:47:00.832Z,25.60
2023-05-06T15:52:00.636Z,26.60
2023-05-06T15:54:28.537Z,26.70
2023-05-06T15:56:56.361Z,26.50
2023-05-06T15:59:23.276Z,27.20
2023-05-06T16:02:25.555Z,27.30
2023-05-06T16:04:37.316Z,27.70
2023-05-06T16:07:04.356Z,27.60
2023-05-06T16:09:31.127Z,27.60
2023-05-06T16:11:57.994Z,27.70
2023-05-06T16:14:24.746Z,28.20
2023-05-06T16:16:52.669Z,28.00
2023-05-06T16:19:19.492Z,28.30
2023-05-06T16:21:46.273Z,28.20
2023-05-06T16:24:13.142Z,28.60
2023-05-06T16:26:40.289Z,28.30
2023-05-06T16:29:07.027Z,28.50
2023-05-06T16:31:34.117Z,28.70
2023-05-06T16:34:00.937Z,28.60
2023-05-06T16:36:28.540Z,28.70
2023-05-06T16:38:55.602Z,29.20
2023-05-06T16:41:22.385Z,29.70
2023-05-06T16:43:49.234Z,30.40
2023-05-06T16:46:16.121Z,29.90
2023-05-06T16:48:43.074Z,30.30
2023-05-06T16:51:10.546Z,30.40
2023-05-06T16:53:37.362Z,30.30
2023-05-06T16:56:04.371Z,30.40
2023-05-06T16:58:31.112Z,30.00
2023-05-06T17:00:58.063Z,30.40
2023-05-06T17:03:24.980Z,30.20
2023-05-06T17:05:51.869Z,30.70
2023-05-06T17:08:19.383Z,30.70
2023-05-06T17:10:46.212Z,30.40
2023-05-06T17:13:13.605Z,30.70
2023-05-06T17:15:40.447Z,30.90
2023-05-06T17:18:07.286Z,30.70
2023-05-06T17:20:51.515Z,30.60
2023-05-06T17:23:21.896Z,30.70
2023-05-06T17:25:48.861Z,31.10
2023-05-06T17:28:16.855Z,30.70
2023-05-06T17:30:45.218Z,31.20
2023-05-06T17:33:12.140Z,31.60
2023-05-06T17:35:38.891Z,31.40
2023-05-06T17:38:05.877Z,32.70
2023-05-06T17:40:32.653Z,31.70
2023-05-06T17:42:59.684Z,32.00
2023-05-06T17:45:28.506Z,31.80
2023-05-06T17:47:56.581Z,32.20
2023-05-06T17:50:23.579Z,32.30
2023-05-06T17:52:52.388Z,31.90
2023-05-06T17:55:22.169Z,32.00
2023-05-06T17:57:49.479Z,32.80
2023-05-06T18:00:17.193Z,32.80
2023-05-06T18:02:44.698Z,33.20
2023-05-06T18:05:12.190Z,33.00
2023-05-06T18:07:39.506Z,34.20
2023-05-06T18:10:07.138Z,34.20
2023-05-06T18:12:34.116Z,34.30
2023-05-06T18:15:01.343Z,34.50
2023-05-06T18:17:28.266Z,35.30
2023-05-06T18:19:55.533Z,34.80
2023-05-06T18:22:22.878Z,35.40
2023-05-06T18:24:54.905Z,35.50
2023-05-06T18:27:22.648Z,36.20
2023-05-06T18:29:49.587Z,36.30
2023-05-06T18:32:16.535Z,36.10
2023-05-06T18:34:43.361Z,37.00
2023-05-06T18:37:10.185Z,37.40
2023-05-06T18:39:41.670Z,37.20
2023-05-06T18:42:08.748Z,37.70
2023-05-06T18:44:35.791Z,37.70
2023-05-06T18:47:02.713Z,37.70
2023-05-06T18:49:30.782Z,38.00
2023-05-06T18:51:57.744Z,38.60
2023-05-06T18:54:24.886Z,38.60
2023-05-06T18:56:52.002Z,39.00
2023-05-06T18:59:19.724Z,38.90
2023-05-06T19:01:46.653Z,39.20
2023-05-06T19:04:13.687Z,39.30
2023-05-06T19:06:41.039Z,39.80
2023-05-06T19:09:08.094Z,39.30
2023-05-06T19:11:35.067Z,39.50
2023-05-06T19:14:02.044Z,39.60
2023-05-06T19:16:29.228Z,39.60
2023-05-06T19:18:56.016Z,39.50
2023-05-06T19:21:23.070Z,40.10
2023-05-06T19:23:50.253Z,40.00
2023-05-06T19:26:17.110Z,40.10
2023-05-06T19:28:44.037Z,40.50
2023-05-06T19:31:11.337Z,40.10
2023-05-06T19:33:39.136Z,40.30
2023-05-06T19:36:06.445Z,40.00
2023-05-06T19:38:33.863Z,40.20
2023-05-06T19:41:01.114Z,40.40
2023-05-06T19:43:28.044Z,40.30
2023-05-06T19:45:54.911Z,40.30
2023-05-06T19:48:23.775Z,40.70
2023-05-06T19:50:51.568Z,41.00
2023-05-06T19:53:18.421Z,40.80
2023-05-06T19:55:45.482Z,40.90
2023-05-06T19:58:14.171Z,40.80
2023-05-06T20:00:41.187Z,40.90
2023-05-06T20:03:08.957Z,41.50
2023-05-06T20:05:36.056Z,42.40
2023-05-06T20:08:02.878Z,41.70
2023-05-06T20:10:29.856Z,41.90
2023-05-06T20:12:57.804Z,42.20
2023-05-06T20:15:25.233Z,42.20
2023-05-06T20:17:52.152Z,42.40
2023-05-06T20:20:19.167Z,42.50
2023-05-06T20:22:46.084Z,43.10
2023-05-06T20:25:17.614Z,42.90
2023-05-06T20:27:45.633Z,42.20
2023-05-06T20:30:12.868Z,42.60
2023-05-06T20:32:40.449Z,42.90
2023-05-06T20:35:08.686Z,42.90
2023-05-06T20:37:36.374Z,43.00
2023-05-06T20:40:04.940Z,42.60
2023-05-06T20:42:32.118Z,43.00
2023-05-06T20:44:58.913Z,42.30
2023-05-06T20:47:28.643Z,42.30
2023-05-06T20:49:55.744Z,43.20
2023-05-06T20:52:22.490Z,44.30
2023-05-06T20:54:49.609Z,44.10
2023-05-06T20:57:17.024Z,44.40
2023-05-06T20:59:44.489Z,44.30
2023-05-06T21:02:11.378Z,44.70
2023-05-06T21:04:38.305Z,44.20
2023-05-06T21:07:05.209Z,44.10
2023-05-06T21:09:32.063Z,44.30
2023-05-06T21:11:59.081Z,44.00
2023-05-06T21:14:26.980Z,44.40
2023-05-06T21:16:54.166Z,44.90
2023-05-06T21:19:21.020Z,45.00
2023-05-06T21:21:48.380Z,44.90
2023-05-06T21:24:15.589Z,44.80
2023-05-06T21:26:42.517Z,45.30
2023-05-06T21:29:09.347Z,45.90
2023-05-06T21:31:37.858Z,46.70
2023-05-06T21:34:07.704Z,46.40
2023-05-06T21:36:36.347Z,46.60
2023-05-06T21:39:09.728Z,47.80
2023-05-06T21:41:36.875Z,47.80
2023-05-06T21:44:05.084Z,48.20
2023-05-06T21:46:32.825Z,48.60
2023-05-06T21:49:00.364Z,49.20
2023-05-06T21:51:28.657Z,51.20
2023-05-06T21:53:55.572Z,51.30
2023-05-06T21:56:22.417Z,51.60
2023-05-06T21:58:49.333Z,51.50
2023-05-06T22:01:16.632Z,51.20
2023-05-06T22:03:45.490Z,50.70
2023-05-06T22:06:12.757Z,50.90
2023-05-06T22:08:40.881Z,51.00
2023-05-06T22:11:07.783Z,51.10
2023-05-06T22:13:34.660Z,50.50
2023-05-06T22:16:01.575Z,49.90
2023-05-06T22:18:30.053Z,49.70
2023-05-06T22:20:57.806Z,49.90
2023-05-06T22:23:25.483Z,50.00
2023-05-06T22:25:52.485Z,49.50
2023-05-06T22:28:19.877Z,49.70
2023-05-06T22:30:46.702Z,49.70
2023-05-06T22:33:13.557Z,49.30
2023-05-06T22:35:40.447Z,49.30
2023-05-06T22:38:07.200Z,49.40
2023-05-06T22:40:34.042Z,49.30
2023-05-06T22:43:00.907Z,49.40
2023-05-06T22:45:27.707Z,49.10
2023-05-06T22:47:54.615Z,49.60
2023-05-06T22:50:21.736Z,49.40
2023-05-06T22:52:48.485Z,49.30
2023-05-06T22:55:16.108Z,50.00
2023-05-06T22:57:42.913Z,49.50
2023-05-06T23:00:12.503Z,49.60
2023-05-06T23:02:39.875Z,50.00
2023-05-06T23:05:06.887Z,50.00
2023-05-06T23:07:33.676Z,49.90
2023-05-06T23:10:00.604Z,50.20
2023-05-06T23:12:31.425Z,50.00
2023-05-06T23:14:58.145Z,50.50
2023-05-06T23:17:24.929Z,50.20
2023-05-06T23:19:51.881Z,50.40
2023-05-06T23:22:18.694Z,50.10
2023-05-06T23:24:46.010Z,50.40
2023-05-06T23:27:12.779Z,50.60
2023-05-06T23:29:39.650Z,50.70
2023-05-06T23:32:07.057Z,51.00
2023-05-06T23:34:33.782Z,50.90
2023-05-06T23:37:00.952Z,50.90
2023-05-06T23:39:27.711Z,50.80
2023-05-06T23:41:54.509Z,51.00
2023-05-06T23:44:21.365Z,50.70
2023-05-06T23:46:48.249Z,50.80
2023-05-06T23:49:15.413Z,51.00
2023-05-06T23:51:42.238Z,51.10
2023-05-06T23:54:09.002Z,51.00
2023-05-06T23:56:36.028Z,50.80
2023-05-06T23:59:02.964Z,51.10
